Atlantic - Newfoundland: Past 24 Hour Conditions

 

Stephenville Airport

06:30 AM NDT 21 October 2014
This table is a summary of hourly weather conditions for the past 24 hours.
Date / Time
(NDT)
Wind(knots) Conditions Visibility(km) Pressure(kPa) Air tempC) Relative humidity(%) Dew pointC)
21 October 2014
6:30 W 17 gust 28 Cloudy 24 101.1 8 73 3
5:30 W 27 gust 35 Cloudy 24 101.0 8 72 3
4:30 WSW 25 gust 35 Cloudy 24 100.8 8 76 4
3:30 WSW 27 gust 35 Mostly Cloudy 24 100.8 8 71 3
2:30 W 27 gust 37 Light Rain 24 100.7 8 76 4
1:30 WSW 29 gust 39 Light Rain 24 100.5 7 85 5
0:30 WSW 31 gust 43 Light Rain 24 100.5 7 68 2
20 October 2014
23:30 W 29 gust 38 Light Rain 16 100.4 7 74 3
22:30 WSW 30 gust 39 Light Rain 19 100.3 8 77 4
21:30 WSW 28 gust 42 Light Rain 19 100.3 7 85 5
20:30 WSW 33 gust 42 Light Rain 16 100.2 7 80 4
19:30 WSW 29 gust 36 Light Rain 13 100.1 7 82 4
18:30 WSW 33 gust 44 Light Rain 16 100.0 6 90 4
17:30 WSW 31 gust 41 Light Rainshower 19 99.9 7 82 4
16:30 W 32 gust 40 Mostly Cloudy 19 99.8 9 74 4
15:30 WSW 31 gust 39 Light Rain 16 99.7 8 88 6
14:30 WSW 33 gust 41 Light Rain 13 99.6 7 91 6
13:30 WSW 32 gust 40 Light Rain 13 99.4 7 93 6
12:30 W 29 Light Rain 8 99.3 8 95 7
11:30 W 17 gust 36 Light Rain 5 99.0 8 97 8
10:30 WNW 19 gust 29 Light Rainshower 13 98.6 10 95 9
9:30 SSE 13 gust 19 Light Rainshower 19 98.5 15 90 14
8:30 E 7 Light Rainshower 24 98.7 16 92 15
7:30 E 14 Cloudy 24 98.8 15 90 14
6:30 E 17 Mostly Cloudy 24 99.1 14 88 12
 
Map of Atlantic - Newfoundland marine weather areas Southwestern Grand Banks - 44138 Banquereau - 44139 Tail of the Bank - 44140 Nickerson Bank - 44251 Northeast Burgeo Bank - 44255 Blanc-Sablon Airport Cap Whittle Chevery Natashquan Airport Heath Point Miscou Island Grand Étang Ingonish Beach North Mountain St.Paul Island J.A. Douglas McCurdy Sydney Airport Charlottetown Airport East Point North Cape Argentia Bonavista Burgeo Cape Race Corner Brook Daniel's Harbour Englee Ferolle Point La Scie Port aux Basques Rocky Harbour Sagona Island St. Anthony Airport St. John's Int'l Airport St. Lawrence Stephenville Airport Twillingate Winterland Wreckhouse Cartwright Airport Mary's Harbour Grates Cove Pool's Island Marticot Island Long Pond Îles de la Madeleine Airport
Legend: buoyBuoy land stationLand Station